createdAt,value
2017-08-22T00:00:05.122Z,0
2017-08-22T00:00:45.543Z,0
2017-08-22T00:01:25.894Z,0
2017-08-22T00:02:06.391Z,0
2017-08-22T00:02:46.762Z,0
2017-08-22T00:03:27.149Z,0
2017-08-22T00:04:07.567Z,0
2017-08-22T00:04:47.985Z,0
2017-08-22T00:05:28.396Z,0
2017-08-22T00:06:08.806Z,0
2017-08-22T00:06:49.165Z,0
2017-08-22T00:07:29.573Z,0
2017-08-22T00:08:09.935Z,0
2017-08-22T00:08:50.367Z,0
2017-08-22T00:09:30.774Z,0
2017-08-22T00:10:11.209Z,0
2017-08-22T00:10:51.600Z,0
2017-08-22T00:11:32.002Z,0
2017-08-22T00:12:12.451Z,0
2017-08-22T00:12:52.887Z,0
2017-08-22T00:13:33.256Z,0
2017-08-22T00:14:13.588Z,0
2017-08-22T00:14:54.061Z,0
2017-08-22T00:15:34.480Z,0
2017-08-22T00:16:14.898Z,0
2017-08-22T00:16:55.279Z,0
2017-08-22T00:17:35.703Z,0
2017-08-22T00:18:16.157Z,0
2017-08-22T00:18:56.520Z,0
2017-08-22T00:19:36.935Z,0
2017-08-22T00:20:17.361Z,0
2017-08-22T00:20:57.826Z,0
2017-08-22T00:21:38.162Z,0
2017-08-22T00:22:18.573Z,0
2017-08-22T00:22:59.001Z,0
2017-08-22T00:23:39.392Z,0
2017-08-22T00:24:19.757Z,0
2017-08-22T00:25:00.210Z,0
2017-08-22T00:25:40.614Z,0
2017-08-22T00:26:21.048Z,0
2017-08-22T00:27:01.403Z,0
2017-08-22T00:27:41.932Z,0
2017-08-22T00:28:22.243Z,0
2017-08-22T00:29:02.684Z,0
2017-08-22T00:29:43.036Z,0
2017-08-22T00:30:23.484Z,0
2017-08-22T00:31:03.880Z,0
2017-08-22T00:31:44.326Z,0
2017-08-22T00:32:24.727Z,0
2017-08-22T00:33:05.125Z,0
2017-08-22T00:33:45.554Z,0
2017-08-22T00:34:25.891Z,0
2017-08-22T00:35:06.315Z,0
2017-08-22T00:35:46.731Z,0
2017-08-22T00:36:27.125Z,0
2017-08-22T00:37:07.560Z,0
2017-08-22T00:37:47.956Z,0
2017-08-22T00:38:28.362Z,0
2017-08-22T00:39:08.725Z,0
2017-08-22T00:39:49.197Z,0
2017-08-22T00:40:29.563Z,0
2017-08-22T00:41:10.025Z,0
2017-08-22T00:41:50.400Z,0
2017-08-22T00:42:30.767Z,0
2017-08-22T00:43:11.122Z,0
2017-08-22T00:43:51.596Z,0
2017-08-22T00:44:31.972Z,0
2017-08-22T00:45:12.371Z,0
2017-08-22T00:45:52.802Z,0
2017-08-22T00:46:33.174Z,0
2017-08-22T00:47:13.729Z,0
2017-08-22T00:47:54.132Z,0
2017-08-22T00:48:34.515Z,0
2017-08-22T00:50:54.258Z,0
2017-08-22T00:51:34.721Z,0
2017-08-22T00:52:15.171Z,0
2017-08-22T00:52:55.583Z,0
2017-08-22T00:53:35.953Z,0
2017-08-22T00:54:16.416Z,0
2017-08-22T00:54:56.870Z,0
2017-08-22T00:55:37.374Z,0
2017-08-22T00:56:17.768Z,0
2017-08-22T00:56:58.160Z,0
2017-08-22T00:57:38.878Z,0
2017-08-22T00:58:19.076Z,0
2017-08-22T00:58:59.563Z,0
2017-08-22T00:59:39.945Z,0
2017-08-22T01:00:20.644Z,0
2017-08-22T01:01:01.501Z,0
2017-08-22T01:01:41.532Z,0
2017-08-22T01:02:21.946Z,0
2017-08-22T01:03:02.760Z,0
2017-08-22T01:03:43.099Z,0
2017-08-22T01:04:23.976Z,0
2017-08-22T01:05:04.376Z,0
2017-08-22T01:05:45.109Z,0
2017-08-22T01:06:25.224Z,0
2017-08-22T01:07:07.108Z,0
2017-08-22T01:07:47.280Z,0
2017-08-22T01:08:28.909Z,0
2017-08-22T01:09:09.756Z,0
2017-08-22T01:09:50.069Z,0
2017-08-22T01:10:32.670Z,0
2017-08-22T01:11:12.970Z,0
2017-08-22T01:11:53.358Z,0
2017-08-22T01:12:33.738Z,0
2017-08-22T01:13:14.547Z,0
2017-08-22T01:13:54.806Z,0
2017-08-22T01:14:35.291Z,0
2017-08-22T01:15:15.631Z,0
2017-08-22T01:15:56.064Z,0
2017-08-22T01:16:37.249Z,0
2017-08-22T01:17:17.668Z,0
2017-08-22T01:17:58.217Z,0
2017-08-22T01:18:38.687Z,0
2017-08-22T01:19:19.323Z,0
2017-08-22T01:19:59.692Z,0
2017-08-22T01:22:15.672Z,0
2017-08-22T01:22:56.960Z,0
2017-08-22T01:23:37.277Z,0
2017-08-22T01:24:17.651Z,0
2017-08-22T01:24:59.076Z,0
2017-08-22T01:25:39.441Z,0
2017-08-22T01:26:21.130Z,0
2017-08-22T01:27:01.474Z,0
2017-08-22T01:27:41.845Z,0
2017-08-22T01:28:22.883Z,0
2017-08-22T01:29:03.457Z,0
2017-08-22T01:29:43.761Z,0
2017-08-22T01:30:24.172Z,0
2017-08-22T01:31:04.964Z,0
2017-08-22T01:31:45.479Z,0
2017-08-22T01:32:25.996Z,0
2017-08-22T01:33:06.339Z,0
2017-08-22T01:33:46.888Z,0
2017-08-22T01:34:28.326Z,0
2017-08-22T01:35:08.629Z,0
2017-08-22T01:35:49.488Z,0
2017-08-22T01:36:30.189Z,0
2017-08-22T01:37:10.493Z,0
2017-08-22T01:37:50.908Z,0
2017-08-22T01:38:31.329Z,0
2017-08-22T01:39:11.701Z,0
2017-08-22T01:39:52.132Z,0
2017-08-22T01:40:32.504Z,0
2017-08-22T01:41:12.949Z,0
2017-08-22T01:41:53.414Z,0
2017-08-22T01:42:33.803Z,0
2017-08-22T01:43:14.492Z,0
2017-08-22T01:43:55.371Z,0
2017-08-22T01:44:35.534Z,0
2017-08-22T01:45:16.901Z,0
2017-08-22T01:45:57.897Z,0
2017-08-22T01:46:38.458Z,0
2017-08-22T01:47:19.275Z,0
2017-08-22T01:47:59.924Z,0
2017-08-22T01:48:40.381Z,0
2017-08-22T01:49:20.684Z,0
2017-08-22T01:50:02.209Z,0
2017-08-22T01:50:43.119Z,0
2017-08-22T01:51:23.594Z,0
2017-08-22T01:52:04.028Z,0
2017-08-22T01:52:44.816Z,0
2017-08-22T01:53:25.121Z,0
2017-08-22T01:54:06.070Z,0
2017-08-22T01:54:46.308Z,0
2017-08-22T01:55:27.511Z,0
2017-08-22T01:56:08.141Z,0
2017-08-22T01:56:49.421Z,0
2017-08-22T01:57:30.762Z,0
2017-08-22T01:58:10.934Z,0
2017-08-22T01:58:51.309Z,0
2017-08-22T01:59:32.197Z,0
2017-08-22T02:00:12.479Z,0
2017-08-22T02:02:32.695Z,0
2017-08-22T02:03:13.032Z,0
2017-08-22T02:03:53.755Z,0
2017-08-22T02:04:34.241Z,0
2017-08-22T02:05:16.316Z,0
2017-08-22T02:05:56.551Z,0
2017-08-22T02:06:37.273Z,0
2017-08-22T02:07:17.683Z,0
2017-08-22T02:09:55.480Z,0
2017-08-22T02:10:35.886Z,0
2017-08-22T02:11:16.233Z,0
2017-08-22T02:11:56.712Z,0
2017-08-22T02:12:37.154Z,0
2017-08-22T02:13:17.641Z,0
2017-08-22T02:13:58.076Z,0
2017-08-22T02:14:38.425Z,0
2017-08-22T02:15:18.997Z,0
2017-08-22T02:15:59.641Z,0
2017-08-22T02:16:40.081Z,0
2017-08-22T02:17:20.534Z,0
2017-08-22T02:18:01.075Z,0
2017-08-22T02:18:41.562Z,0
2017-08-22T02:19:21.842Z,0
2017-08-22T02:20:02.231Z,0
2017-08-22T02:20:42.637Z,0
2017-08-22T02:21:23.051Z,0
2017-08-22T02:22:03.428Z,0
2017-08-22T02:22:43.851Z,0
2017-08-22T02:23:24.251Z,0
2017-08-22T02:24:04.684Z,0
2017-08-22T02:24:45.150Z,0
2017-08-22T02:25:25.729Z,0
2017-08-22T02:26:06.184Z,0
2017-08-22T02:26:46.491Z,0
2017-08-22T02:27:27.017Z,0
2017-08-22T02:28:07.381Z,0
2017-08-22T02:28:47.794Z,0
2017-08-22T02:29:28.366Z,0
2017-08-22T02:30:08.626Z,0
2017-08-22T02:30:49.106Z,0
2017-08-22T02:31:29.613Z,0
2017-08-22T02:32:10.349Z,0
2017-08-22T02:32:51.417Z,0
2017-08-22T02:33:32.116Z,0
2017-08-22T02:34:12.230Z,0
2017-08-22T02:34:52.731Z,0
2017-08-22T02:35:33.003Z,0
2017-08-22T02:36:13.416Z,0
2017-08-22T02:36:53.938Z,0
2017-08-22T02:37:34.191Z,0
2017-08-22T02:38:14.859Z,0
2017-08-22T02:38:55.203Z,0
2017-08-22T02:39:35.617Z,0
2017-08-22T02:40:16.071Z,0
2017-08-22T02:40:56.809Z,0
2017-08-22T02:41:37.157Z,0
2017-08-22T02:42:17.585Z,0
2017-08-22T02:42:57.991Z,0
2017-08-22T02:43:38.692Z,0
2017-08-22T02:44:18.970Z,0
2017-08-22T02:44:59.404Z,0
2017-08-22T02:45:40.026Z,0
2017-08-22T02:46:20.402Z,0
2017-08-22T02:47:01.052Z,0
2017-08-22T02:47:41.474Z,0
2017-08-22T02:48:21.760Z,0
2017-08-22T02:49:02.172Z,0
2017-08-22T02:49:42.583Z,0
2017-08-22T02:50:23.161Z,0
2017-08-22T02:51:03.756Z,0
2017-08-22T02:51:44.220Z,0
2017-08-22T02:52:24.603Z,0
2017-08-22T02:53:05.176Z,0
2017-08-22T02:53:45.627Z,0
2017-08-22T02:54:26.044Z,0
2017-08-22T02:55:06.484Z,0
2017-08-22T02:55:47.012Z,0
2017-08-22T02:56:27.320Z,0
2017-08-22T02:57:07.956Z,0
2017-08-22T02:57:48.654Z,0
2017-08-22T02:58:29.107Z,0
2017-08-22T02:59:09.681Z,0
2017-08-22T02:59:50.011Z,0
2017-08-22T03:00:30.476Z,0
2017-08-22T03:01:10.832Z,0
2017-08-22T03:01:51.320Z,0
2017-08-22T03:02:32.030Z,0
2017-08-22T03:03:12.495Z,0
2017-08-22T03:03:52.926Z,0
2017-08-22T03:04:33.463Z,0
2017-08-22T03:05:14.055Z,0
2017-08-22T03:05:54.444Z,0
2017-08-22T03:06:34.991Z,0
2017-08-22T03:07:15.368Z,0
2017-08-22T03:07:55.671Z,0
2017-08-22T03:08:36.300Z,0
2017-08-22T03:09:16.833Z,0
2017-08-22T03:09:57.317Z,0
2017-08-22T03:10:38.063Z,0
2017-08-22T03:11:18.224Z,0
2017-08-22T03:11:58.900Z,0
2017-08-22T03:12:39.352Z,0
2017-08-22T03:13:19.762Z,0
2017-08-22T03:14:00.283Z,0
2017-08-22T03:14:40.571Z,0
2017-08-22T03:15:21.038Z,0
2017-08-22T03:16:01.731Z,0
2017-08-22T03:16:42.104Z,0
2017-08-22T03:17:22.577Z,0
2017-08-22T03:18:03.455Z,0
2017-08-22T03:18:43.883Z,0
2017-08-22T03:19:24.443Z,0
2017-08-22T03:20:04.660Z,0
2017-08-22T03:20:45.153Z,0
2017-08-22T03:21:25.595Z,0
2017-08-22T03:22:06.637Z,0
2017-08-22T03:22:46.962Z,0
2017-08-22T03:23:27.350Z,0
2017-08-22T03:24:07.751Z,0
2017-08-22T03:24:48.677Z,0
2017-08-22T03:25:29.393Z,0
2017-08-22T03:26:09.736Z,0
2017-08-22T03:26:50.409Z,0
2017-08-22T03:27:31.037Z,0
2017-08-22T03:28:11.408Z,0
2017-08-22T03:28:51.690Z,0
2017-08-22T03:29:32.092Z,0
2017-08-22T03:30:12.579Z,0
2017-08-22T03:30:52.973Z,0
2017-08-22T03:31:33.585Z,0
2017-08-22T03:32:14.054Z,0
2017-08-22T03:32:54.486Z,0
2017-08-22T03:33:34.955Z,0
2017-08-22T03:34:15.458Z,0
2017-08-22T03:34:56.694Z,0
2017-08-22T03:35:37.650Z,0
2017-08-22T03:36:17.789Z,0
2017-08-22T03:36:58.365Z,0
2017-08-22T03:37:38.871Z,0
2017-08-22T03:38:19.436Z,0
2017-08-22T03:38:59.893Z,0
2017-08-22T03:39:40.550Z,0
2017-08-22T03:40:20.843Z,0
2017-08-22T03:41:01.278Z,0
2017-08-22T03:41:41.782Z,0
2017-08-22T03:44:04.219Z,0
2017-08-22T03:44:44.641Z,0
2017-08-22T03:45:25.050Z,0
2017-08-22T03:46:05.508Z,0
2017-08-22T03:46:46.066Z,0
2017-08-22T03:47:26.357Z,0
2017-08-22T03:48:06.821Z,0
2017-08-22T03:48:47.186Z,0
2017-08-22T03:49:28.434Z,0
2017-08-22T03:50:08.416Z,0
2017-08-22T03:50:48.716Z,0
2017-08-22T03:51:29.113Z,0
2017-08-22T03:52:09.569Z,0
2017-08-22T03:52:49.972Z,0
2017-08-22T03:53:30.412Z,0
2017-08-22T03:54:10.986Z,0
2017-08-22T03:54:51.361Z,0
2017-08-22T03:55:32.200Z,0
2017-08-22T03:56:13.180Z,0
2017-08-22T03:56:53.590Z,0
2017-08-22T03:57:33.980Z,0
2017-08-22T03:58:14.403Z,0
2017-08-22T03:58:54.821Z,0
2017-08-22T03:59:35.254Z,0
2017-08-22T04:00:16.203Z,0
2017-08-22T04:00:56.131Z,0
2017-08-22T04:01:36.495Z,0
2017-08-22T04:02:16.999Z,0
2017-08-22T04:02:57.496Z,0
2017-08-22T04:03:38.321Z,0
2017-08-22T04:06:18.704Z,0
2017-08-22T04:06:59.175Z,0
2017-08-22T04:07:39.797Z,0
2017-08-22T04:08:20.097Z,0
2017-08-22T04:09:00.597Z,0
2017-08-22T04:09:41.034Z,0
2017-08-22T04:10:23.389Z,0
2017-08-22T04:11:05.172Z,0
2017-08-22T04:11:45.409Z,0
2017-08-22T04:12:25.915Z,0
2017-08-22T04:13:06.476Z,0
2017-08-22T04:13:47.615Z,0
2017-08-22T04:14:27.679Z,0
2017-08-22T04:15:08.141Z,0
2017-08-22T04:15:48.501Z,0
2017-08-22T04:16:29.165Z,0
2017-08-22T04:17:09.824Z,0
2017-08-22T04:17:51.035Z,0
2017-08-22T04:18:31.283Z,0
2017-08-22T04:19:12.946Z,0
2017-08-22T04:19:53.639Z,0
2017-08-22T04:20:34.208Z,0
2017-08-22T04:21:14.448Z,0
2017-08-22T04:21:55.730Z,0
2017-08-22T04:22:35.664Z,0
2017-08-22T04:23:16.275Z,0
2017-08-22T04:23:57.165Z,0
2017-08-22T04:24:37.672Z,0
2017-08-22T04:25:18.268Z,0
2017-08-22T04:25:58.860Z,0
2017-08-22T04:26:39.144Z,0
2017-08-22T04:27:19.571Z,0
2017-08-22T04:27:59.960Z,0
2017-08-22T04:28:40.573Z,0
2017-08-22T04:29:21.015Z,0
2017-08-22T04:30:01.414Z,0
2017-08-22T04:30:41.966Z,0
2017-08-22T04:31:22.414Z,0
2017-08-22T04:32:02.837Z,0
2017-08-22T04:32:43.539Z,0
2017-08-22T04:33:24.447Z,0
2017-08-22T04:34:04.656Z,0
2017-08-22T04:34:45.040Z,0
2017-08-22T04:35:25.605Z,0
2017-08-22T04:36:06.168Z,0
2017-08-22T04:36:46.508Z,0
2017-08-22T04:37:26.929Z,0
2017-08-22T04:38:07.594Z,0
2017-08-22T04:38:48.032Z,0
2017-08-22T04:39:28.571Z,0
2017-08-22T04:40:09.385Z,0
2017-08-22T04:40:49.668Z,0
2017-08-22T04:41:30.141Z,0
2017-08-22T04:42:10.608Z,0
2017-08-22T04:42:51.113Z,0
2017-08-22T04:43:32.290Z,0
2017-08-22T04:44:12.503Z,0
2017-08-22T04:44:52.953Z,0
2017-08-22T04:45:33.353Z,0
2017-08-22T04:46:13.807Z,0
2017-08-22T04:46:54.275Z,0
2017-08-22T04:47:34.751Z,5
2017-08-22T04:48:15.478Z,5
2017-08-22T04:48:55.776Z,5
2017-08-22T04:49:36.363Z,5
2017-08-22T04:50:16.780Z,5
2017-08-22T04:50:57.254Z,5
2017-08-22T04:51:37.851Z,5
2017-08-22T04:52:18.288Z,5
2017-08-22T04:52:58.821Z,5
2017-08-22T04:53:39.232Z,5
2017-08-22T04:54:19.651Z,5
2017-08-22T04:55:00.033Z,5
2017-08-22T04:55:40.790Z,5
2017-08-22T04:56:21.664Z,5
2017-08-22T04:57:02.257Z,5
2017-08-22T04:57:42.624Z,5
2017-08-22T04:58:23.261Z,5
2017-08-22T04:59:04.033Z,10
2017-08-22T04:59:44.349Z,10
2017-08-22T05:00:24.798Z,10
2017-08-22T05:01:05.645Z,10
2017-08-22T05:01:45.927Z,10
2017-08-22T05:02:26.332Z,10
2017-08-22T05:03:06.843Z,10
2017-08-22T05:03:47.443Z,10
2017-08-22T05:04:27.879Z,10
2017-08-22T05:05:08.257Z,10
2017-08-22T05:05:48.826Z,10
2017-08-22T05:06:30.247Z,10
2017-08-22T05:07:11.257Z,10
2017-08-22T05:07:51.807Z,10
2017-08-22T05:08:33.364Z,10
2017-08-22T05:09:13.756Z,10
2017-08-22T05:09:54.164Z,10
2017-08-22T05:10:34.631Z,10
2017-08-22T05:11:15.087Z,10
2017-08-22T05:11:56.255Z,10
2017-08-22T05:12:37.219Z,10
2017-08-22T05:13:17.528Z,10
2017-08-22T05:13:58.046Z,10
2017-08-22T05:14:38.541Z,15
2017-08-22T05:15:18.872Z,15
2017-08-22T05:15:59.433Z,15
2017-08-22T05:16:39.963Z,15
2017-08-22T05:17:20.526Z,15
2017-08-22T05:18:01.129Z,20
2017-08-22T05:18:41.618Z,20
2017-08-22T05:19:22.397Z,20
2017-08-22T05:20:03.109Z,25
2017-08-22T05:20:43.461Z,25
2017-08-22T05:21:24.099Z,25
2017-08-22T05:22:04.833Z,30
2017-08-22T05:22:45.560Z,30
2017-08-22T05:23:26.053Z,30
2017-08-22T05:24:06.590Z,35
2017-08-22T05:24:47.114Z,35
2017-08-22T05:25:27.643Z,40
2017-08-22T05:26:08.087Z,35
2017-08-22T05:26:48.806Z,35
2017-08-22T05:27:29.194Z,35
2017-08-22T05:28:10.169Z,40
2017-08-22T05:28:50.611Z,40
2017-08-22T05:29:31.190Z,50
2017-08-22T05:30:11.696Z,55
2017-08-22T05:30:53.443Z,50
2017-08-22T05:31:33.811Z,60
2017-08-22T05:32:14.203Z,60
2017-08-22T05:32:55.023Z,65
2017-08-22T05:33:35.467Z,75
2017-08-22T05:34:16.063Z,95
2017-08-22T05:34:56.853Z,110
2017-08-22T05:35:37.277Z,105
2017-08-22T05:36:18.165Z,85
2017-08-22T05:36:58.474Z,80
2017-08-22T05:37:38.948Z,70
2017-08-22T05:38:19.447Z,60
2017-08-22T05:39:00.439Z,60
2017-08-22T05:39:41.133Z,65
2017-08-22T05:40:21.413Z,65
2017-08-22T05:41:01.780Z,65
2017-08-22T05:41:42.162Z,65
2017-08-22T05:42:22.568Z,70
2017-08-22T05:43:03.195Z,85
2017-08-22T05:43:44.394Z,80
2017-08-22T05:44:25.171Z,85
2017-08-22T05:45:06.027Z,155
2017-08-22T05:45:46.394Z,200
2017-08-22T05:46:27.358Z,205
2017-08-22T05:47:07.763Z,225
2017-08-22T05:47:48.432Z,235
2017-08-22T05:48:29.128Z,265
2017-08-22T05:49:09.803Z,245
2017-08-22T05:49:50.716Z,270
2017-08-22T05:50:31.240Z,275
2017-08-22T05:51:11.481Z,285
2017-08-22T05:51:51.999Z,285
2017-08-22T05:52:32.773Z,295
2017-08-22T05:53:13.288Z,300
2017-08-22T05:53:53.892Z,305
2017-08-22T05:54:35.737Z,310
2017-08-22T05:55:15.923Z,280
2017-08-22T05:55:56.214Z,290
2017-08-22T05:56:37.092Z,325
2017-08-22T05:57:17.443Z,330
2017-08-22T05:57:57.851Z,340
2017-08-22T05:58:38.391Z,355
2017-08-22T05:59:18.852Z,345
2017-08-22T05:59:59.461Z,350
2017-08-22T06:00:40.352Z,350
2017-08-22T06:01:21.032Z,360
2017-08-22T06:02:01.857Z,365
2017-08-22T06:02:43.239Z,375
2017-08-22T06:03:23.589Z,380
2017-08-22T06:04:05.462Z,395
2017-08-22T06:04:45.439Z,400
2017-08-22T06:05:26.241Z,415
2017-08-22T06:06:06.494Z,425
2017-08-22T06:06:47.022Z,425
2017-08-22T06:07:29.361Z,425
2017-08-22T06:08:10.060Z,425
2017-08-22T06:08:50.587Z,430
2017-08-22T06:09:31.254Z,430
2017-08-22T06:10:12.076Z,430
2017-08-22T06:10:52.607Z,425
2017-08-22T06:11:33.356Z,435
2017-08-22T06:12:13.860Z,435
2017-08-22T06:12:54.415Z,440
2017-08-22T06:13:34.898Z,440
2017-08-22T06:14:15.413Z,445
2017-08-22T06:14:56.144Z,450
2017-08-22T06:15:36.738Z,460
2017-08-22T06:16:17.501Z,460
2017-08-22T06:16:57.896Z,470
2017-08-22T06:17:38.397Z,480
2017-08-22T06:18:19.176Z,485
2017-08-22T06:19:00.333Z,495
2017-08-22T06:19:40.634Z,500
2017-08-22T06:20:21.586Z,515
2017-08-22T06:21:02.170Z,520
2017-08-22T06:21:42.780Z,520
2017-08-22T06:22:23.935Z,525
2017-08-22T06:23:04.270Z,535
2017-08-22T06:23:44.757Z,555
2017-08-22T06:24:25.253Z,555
2017-08-22T06:25:06.117Z,555
2017-08-22T06:25:46.778Z,560
2017-08-22T06:26:27.124Z,565
2017-08-22T06:27:07.867Z,570
2017-08-22T06:27:48.465Z,580
2017-08-22T06:28:29.184Z,615
2017-08-22T06:31:09.959Z,665
2017-08-22T06:31:50.730Z,670
2017-08-22T06:32:31.593Z,670
2017-08-22T06:33:11.620Z,675
2017-08-22T06:33:52.125Z,680
2017-08-22T06:34:32.554Z,700
2017-08-22T06:35:13.324Z,700
2017-08-22T06:35:53.823Z,690
2017-08-22T06:36:34.371Z,690
2017-08-22T06:37:14.793Z,710
2017-08-22T06:37:55.180Z,715
2017-08-22T06:38:35.821Z,685
2017-08-22T06:39:16.347Z,675
2017-08-22T06:39:56.855Z,690
2017-08-22T06:40:37.425Z,710
2017-08-22T06:41:18.145Z,725
2017-08-22T06:41:58.466Z,710
2017-08-22T06:42:38.968Z,720
2017-08-22T06:43:19.679Z,730
2017-08-22T06:44:00.076Z,715
2017-08-22T06:44:41.210Z,715
2017-08-22T06:45:22.349Z,735
2017-08-22T06:46:03.270Z,760
2017-08-22T06:46:43.863Z,760
2017-08-22T06:47:25.086Z,755
2017-08-22T06:48:05.763Z,765
2017-08-22T06:48:45.979Z,750
2017-08-22T06:49:26.637Z,760
2017-08-22T06:50:07.115Z,785
2017-08-22T06:50:47.645Z,805
2017-08-22T06:51:28.239Z,800
2017-08-22T06:52:08.571Z,805
2017-08-22T06:52:49.242Z,795
2017-08-22T06:53:29.469Z,815
2017-08-22T06:54:10.588Z,820
2017-08-22T06:54:51.039Z,810
2017-08-22T06:55:32.324Z,800
2017-08-22T06:56:12.500Z,820
2017-08-22T06:56:52.999Z,825
2017-08-22T06:57:34.014Z,835
2017-08-22T06:58:16.347Z,835
2017-08-22T06:58:59.627Z,840
2017-08-22T06:59:40.195Z,830
2017-08-22T07:00:20.544Z,850
2017-08-22T07:01:01.072Z,860
2017-08-22T07:01:41.504Z,865
2017-08-22T07:02:21.975Z,825
2017-08-22T07:03:02.472Z,650
2017-08-22T07:03:42.961Z,420
2017-08-22T07:04:23.731Z,330
2017-08-22T07:05:04.269Z,315
2017-08-22T07:05:44.967Z,305
2017-08-22T07:06:25.615Z,305
2017-08-22T07:07:06.017Z,305
2017-08-22T07:07:46.460Z,305
2017-08-22T07:08:26.829Z,305
2017-08-22T07:09:07.497Z,305
2017-08-22T07:09:47.958Z,300
2017-08-22T07:10:28.408Z,300
2017-08-22T07:11:08.844Z,300
2017-08-22T07:11:49.675Z,305
2017-08-22T07:12:30.167Z,305
2017-08-22T07:13:10.782Z,305
2017-08-22T07:13:51.549Z,305
2017-08-22T07:14:32.232Z,305
2017-08-22T07:15:12.554Z,300
2017-08-22T07:15:53.664Z,260
2017-08-22T07:16:34.240Z,285
2017-08-22T07:17:14.796Z,295
2017-08-22T07:17:54.878Z,260
2017-08-22T07:18:35.344Z,305
2017-08-22T07:19:16.007Z,300
2017-08-22T07:19:56.247Z,305
2017-08-22T07:20:36.722Z,305
2017-08-22T07:21:17.305Z,305
2017-08-22T07:21:58.470Z,305
2017-08-22T07:22:39.070Z,305
2017-08-22T07:23:19.685Z,310
2017-08-22T07:24:00.242Z,310
2017-08-22T07:24:40.780Z,310
2017-08-22T07:25:21.551Z,310
2017-08-22T07:26:01.888Z,315
2017-08-22T07:26:42.438Z,315
2017-08-22T07:27:23.208Z,320
2017-08-22T07:28:03.547Z,310
2017-08-22T07:28:44.180Z,315
2017-08-22T07:29:25.170Z,305
2017-08-22T07:30:06.247Z,305
2017-08-22T07:30:46.760Z,305
2017-08-22T07:31:27.722Z,305
2017-08-22T07:32:09.104Z,305
2017-08-22T07:32:49.125Z,300
2017-08-22T07:33:29.930Z,300
2017-08-22T07:34:10.222Z,300
2017-08-22T07:34:50.760Z,295
2017-08-22T07:35:32.172Z,300
2017-08-22T07:36:12.400Z,225
2017-08-22T07:39:04.171Z,225
2017-08-22T07:39:53.370Z,250
2017-08-22T07:40:33.768Z,235
2017-08-22T07:43:26.242Z,210
2017-08-22T07:46:42.807Z,220
2017-08-22T07:47:23.298Z,190
2017-08-22T07:48:03.794Z,205
2017-08-22T07:48:44.204Z,185
2017-08-22T07:49:24.692Z,190
2017-08-22T07:50:05.130Z,190
2017-08-22T07:50:45.507Z,190
2017-08-22T07:51:26.009Z,180
2017-08-22T07:52:06.388Z,195
2017-08-22T07:52:46.738Z,190
2017-08-22T07:53:27.223Z,185
2017-08-22T07:54:07.834Z,200
2017-08-22T07:54:48.246Z,205
2017-08-22T07:55:28.677Z,200
2017-08-22T07:56:09.068Z,190
2017-08-22T07:56:49.587Z,195
2017-08-22T07:57:30.048Z,200
2017-08-22T07:58:10.511Z,185
2017-08-22T07:58:50.841Z,190
2017-08-22T07:59:31.250Z,185
2017-08-22T08:00:11.665Z,185
2017-08-22T08:00:52.065Z,185
2017-08-22T08:01:32.637Z,180
2017-08-22T08:02:12.916Z,175
2017-08-22T08:02:53.366Z,175
2017-08-22T08:03:33.809Z,170
2017-08-22T08:04:14.255Z,170
2017-08-22T08:04:54.691Z,165
2017-08-22T08:05:35.170Z,165
2017-08-22T08:06:15.670Z,165
2017-08-22T08:06:56.014Z,165
2017-08-22T08:07:36.484Z,165
2017-08-22T08:08:17.141Z,165
2017-08-22T08:08:57.598Z,165
2017-08-22T08:09:37.972Z,160
2017-08-22T08:10:18.318Z,160
2017-08-22T08:10:58.739Z,160
2017-08-22T08:11:39.139Z,155
2017-08-22T08:12:19.557Z,155
2017-08-22T08:13:00.073Z,155
2017-08-22T08:13:40.465Z,155
2017-08-22T08:14:20.850Z,155
2017-08-22T08:15:01.321Z,155
2017-08-22T08:15:41.726Z,155
2017-08-22T08:16:22.151Z,155
2017-08-22T08:17:02.544Z,150
2017-08-22T08:17:42.962Z,150
2017-08-22T08:18:24.164Z,150
2017-08-22T08:19:04.659Z,150
2017-08-22T08:19:45.113Z,150
2017-08-22T08:20:25.422Z,150
2017-08-22T08:21:05.853Z,150
2017-08-22T08:21:46.266Z,145
2017-08-22T08:22:26.719Z,145
2017-08-22T08:23:07.138Z,145
2017-08-22T08:23:47.564Z,140
2017-08-22T08:24:27.939Z,140
2017-08-22T08:25:08.544Z,140
2017-08-22T08:25:50.081Z,140
2017-08-22T08:26:31.255Z,140
2017-08-22T08:27:11.661Z,140
2017-08-22T08:27:52.014Z,140
2017-08-22T08:28:32.511Z,140
2017-08-22T08:29:12.945Z,140
2017-08-22T08:29:53.294Z,140
2017-08-22T08:30:33.797Z,140
2017-08-22T08:31:14.303Z,140
2017-08-22T08:31:54.712Z,140
2017-08-22T08:32:35.352Z,135
2017-08-22T08:33:15.794Z,135
2017-08-22T08:33:56.387Z,135
2017-08-22T08:34:36.870Z,135
2017-08-22T08:35:17.286Z,135
2017-08-22T08:35:57.753Z,135
2017-08-22T08:36:38.262Z,135
2017-08-22T08:37:18.707Z,135
2017-08-22T08:37:59.092Z,135
2017-08-22T08:38:39.508Z,135
2017-08-22T08:39:19.958Z,135
2017-08-22T08:40:00.378Z,135
2017-08-22T08:40:40.729Z,130
2017-08-22T08:41:21.250Z,130
2017-08-22T08:42:01.644Z,130
2017-08-22T08:42:42.014Z,130
2017-08-22T08:43:22.513Z,130
2017-08-22T08:44:02.977Z,130
2017-08-22T08:44:43.421Z,130
2017-08-22T08:45:23.788Z,130
2017-08-22T08:46:04.476Z,130
2017-08-22T08:46:45.051Z,130
2017-08-22T08:47:25.405Z,130
2017-08-22T08:48:05.802Z,125
2017-08-22T08:48:46.413Z,125
2017-08-22T08:49:26.876Z,125
2017-08-22T08:50:07.336Z,125
2017-08-22T08:50:47.734Z,125
2017-08-22T08:51:28.388Z,125
2017-08-22T08:52:08.870Z,125
2017-08-22T08:52:49.341Z,125
2017-08-22T08:53:29.735Z,125
2017-08-22T08:54:10.277Z,120
2017-08-22T08:54:50.660Z,120
2017-08-22T08:55:31.076Z,120
2017-08-22T08:56:11.538Z,120
2017-08-22T08:56:51.966Z,120
2017-08-22T08:57:32.394Z,120
2017-08-22T08:58:12.891Z,120
2017-08-22T08:58:53.180Z,120
2017-08-22T08:59:33.669Z,120
2017-08-22T09:00:14.159Z,120
2017-08-22T09:00:54.898Z,115
2017-08-22T09:01:35.245Z,115
2017-08-22T09:02:15.778Z,120
2017-08-22T09:02:56.235Z,115
2017-08-22T09:03:36.619Z,115
2017-08-22T09:04:17.048Z,115
2017-08-22T09:04:57.421Z,115
2017-08-22T09:05:37.928Z,115
2017-08-22T09:06:18.360Z,120
2017-08-22T09:06:58.816Z,115
2017-08-22T09:07:39.295Z,115
2017-08-22T09:08:19.661Z,115
2017-08-22T09:09:00.285Z,110
2017-08-22T09:09:40.643Z,115
2017-08-22T09:10:21.082Z,115
2017-08-22T09:11:01.526Z,110
2017-08-22T09:11:41.907Z,110
2017-08-22T09:12:22.312Z,110
2017-08-22T09:13:02.766Z,110
2017-08-22T09:13:43.143Z,110
2017-08-22T09:14:23.640Z,110
2017-08-22T09:15:04.065Z,110
2017-08-22T09:15:44.431Z,110
2017-08-22T09:16:24.871Z,110
2017-08-22T09:17:05.311Z,110
2017-08-22T09:17:45.766Z,110
2017-08-22T09:18:26.143Z,110
2017-08-22T09:19:06.584Z,110
2017-08-22T09:19:47.368Z,110
2017-08-22T09:20:27.902Z,110
2017-08-22T09:21:08.355Z,110
2017-08-22T09:21:48.782Z,110
2017-08-22T09:22:29.276Z,110
2017-08-22T09:23:09.781Z,110
2017-08-22T09:23:51.354Z,110
2017-08-22T09:24:32.008Z,110
2017-08-22T09:25:12.380Z,110
2017-08-22T09:25:52.847Z,110
2017-08-22T09:26:33.293Z,110
2017-08-22T09:27:13.687Z,110
2017-08-22T09:27:54.075Z,110
2017-08-22T09:28:34.495Z,110
2017-08-22T09:29:14.919Z,110
2017-08-22T09:29:55.478Z,110
2017-08-22T09:30:35.940Z,110
2017-08-22T09:31:16.384Z,110
2017-08-22T09:31:56.786Z,110
2017-08-22T09:32:37.290Z,110
2017-08-22T09:33:17.591Z,110
2017-08-22T09:33:58.082Z,110
2017-08-22T09:34:38.541Z,110
2017-08-22T09:35:19.003Z,110
2017-08-22T09:37:39.247Z,110
2017-08-22T09:38:20.204Z,110
2017-08-22T09:39:00.647Z,110
2017-08-22T09:39:41.275Z,110
2017-08-22T09:40:21.828Z,110
2017-08-22T09:41:02.278Z,110
2017-08-22T09:41:42.523Z,110
2017-08-22T09:42:23.022Z,110
2017-08-22T09:43:03.523Z,110
2017-08-22T09:43:43.939Z,105
2017-08-22T09:44:24.371Z,105
2017-08-22T09:45:05.093Z,105
2017-08-22T09:45:45.561Z,105
2017-08-22T09:46:26.335Z,105
2017-08-22T09:47:07.319Z,105
2017-08-22T09:47:47.732Z,105
2017-08-22T09:48:28.566Z,105
2017-08-22T09:49:09.002Z,105
2017-08-22T09:49:49.886Z,105
2017-08-22T09:50:30.078Z,105
2017-08-22T09:51:10.455Z,105
2017-08-22T09:51:50.888Z,105
2017-08-22T09:52:31.432Z,105
2017-08-22T09:53:11.801Z,105
2017-08-22T09:53:52.236Z,105
2017-08-22T09:54:32.738Z,105
2017-08-22T09:55:13.195Z,105
2017-08-22T09:55:53.565Z,105
2017-08-22T09:56:33.970Z,105
2017-08-22T09:57:14.463Z,105
2017-08-22T09:57:54.844Z,105
2017-08-22T09:58:35.286Z,105
2017-08-22T09:59:15.704Z,105
2017-08-22T09:59:56.395Z,105
2017-08-22T10:02:56.873Z,105